createdAt,value
2018-02-27T00:00:40.391Z,5.00
2018-02-27T00:01:43.645Z,4.72
2018-02-27T00:02:46.146Z,5.30
2018-02-27T00:03:49.415Z,4.87
2018-02-27T00:04:51.951Z,5.32
2018-02-27T00:05:54.464Z,5.85
2018-02-27T00:06:56.932Z,5.30
2018-02-27T00:07:59.398Z,4.28
2018-02-27T00:09:02.625Z,5.12
2018-02-27T00:10:05.184Z,4.68
2018-02-27T00:11:07.724Z,4.90
2018-02-27T00:12:10.290Z,5.00
2018-02-27T00:13:13.748Z,5.85
2018-02-27T00:14:17.083Z,4.37
2018-02-27T00:15:20.892Z,4.55
2018-02-27T00:16:24.265Z,5.30
2018-02-27T00:17:26.820Z,4.95
2018-02-27T00:18:29.388Z,4.40
2018-02-27T00:19:31.979Z,4.82
2018-02-27T00:20:34.583Z,4.50
2018-02-27T00:21:38.117Z,4.65
2018-02-27T00:22:40.655Z,4.05
2018-02-27T00:23:43.253Z,5.00
2018-02-27T00:24:45.995Z,4.53
2018-02-27T00:25:48.581Z,5.00
2018-02-27T00:26:51.293Z,4.30
2018-02-27T00:27:54.390Z,4.53
2018-02-27T00:28:57.031Z,4.25
2018-02-27T00:29:59.674Z,4.07
2018-02-27T00:31:02.266Z,4.78
2018-02-27T00:32:04.852Z,4.78
2018-02-27T00:33:08.087Z,5.32
2018-02-27T00:34:11.402Z,4.80
2018-02-27T00:35:13.938Z,5.05
2018-02-27T00:36:16.537Z,4.57
2018-02-27T00:37:19.039Z,4.82
2018-02-27T00:38:21.632Z,4.80
2018-02-27T00:39:24.990Z,4.80
2018-02-27T00:40:28.389Z,5.20
2018-02-27T00:41:31.013Z,4.70
2018-02-27T00:42:34.195Z,5.28
2018-02-27T00:43:36.784Z,4.95
2018-02-27T00:44:39.348Z,4.85
2018-02-27T00:45:41.992Z,4.85
2018-02-27T00:46:44.709Z,5.00
2018-02-27T00:47:47.306Z,4.60
2018-02-27T00:48:50.476Z,5.37
2018-02-27T00:49:54.078Z,4.45
2018-02-27T00:50:56.668Z,5.75
2018-02-27T00:51:59.378Z,5.00
2018-02-27T00:53:01.957Z,5.10
2018-02-27T00:54:04.486Z,5.12
2018-02-27T00:55:07.896Z,5.30
2018-02-27T00:56:11.225Z,4.78
2018-02-27T00:57:14.632Z,5.37
2018-02-27T00:58:17.264Z,5.30
2018-02-27T00:59:19.997Z,5.47
2018-02-27T01:00:22.544Z,5.40
2018-02-27T01:01:25.224Z,5.30
2018-02-27T01:02:27.868Z,5.40
2018-02-27T01:03:30.432Z,6.07
2018-02-27T01:04:33.802Z,5.65
2018-02-27T01:05:37.170Z,4.90
2018-02-27T01:06:40.591Z,5.05
2018-02-27T01:07:43.948Z,4.55
2018-02-27T01:08:47.253Z,5.45
2018-02-27T01:09:50.448Z,5.20
2018-02-27T01:10:53.113Z,4.80
2018-02-27T01:11:55.757Z,5.22
2018-02-27T01:12:59.163Z,5.07
2018-02-27T01:14:01.713Z,5.72
2018-02-27T01:15:04.262Z,5.72
2018-02-27T01:16:07.571Z,6.03
2018-02-27T01:17:10.155Z,5.60
2018-02-27T01:18:12.699Z,5.00
2018-02-27T01:19:15.170Z,5.82
2018-02-27T01:20:17.644Z,5.35
2018-02-27T01:21:20.138Z,5.72
2018-02-27T01:22:22.705Z,5.97
2018-02-27T01:23:25.953Z,5.57
2018-02-27T01:24:28.530Z,6.18
2018-02-27T01:25:31.928Z,5.80
2018-02-27T01:26:34.530Z,5.70
2018-02-27T01:27:37.112Z,6.40
2018-02-27T01:28:40.531Z,5.60
2018-02-27T01:29:43.117Z,5.60
2018-02-27T01:30:45.797Z,6.07
2018-02-27T01:31:48.427Z,5.55
2018-02-27T01:32:51.108Z,5.95
2018-02-27T01:33:53.709Z,6.10
2018-02-27T01:34:56.331Z,5.32
2018-02-27T01:35:58.976Z,5.55
2018-02-27T01:37:01.650Z,5.72
2018-02-27T01:38:04.246Z,5.65
2018-02-27T01:39:07.684Z,5.50
2018-02-27T01:40:11.248Z,5.07
2018-02-27T01:41:14.792Z,4.65
2018-02-27T01:42:18.110Z,5.53
2018-02-27T01:43:20.899Z,5.75
2018-02-27T01:44:24.680Z,6.03
2018-02-27T01:45:28.127Z,5.40
2018-02-27T01:46:30.785Z,5.72
2018-02-27T01:47:33.360Z,6.18
2018-02-27T01:48:35.961Z,5.55
2018-02-27T01:49:38.707Z,5.25
2018-02-27T01:50:41.298Z,5.75
2018-02-27T01:51:43.896Z,6.10
2018-02-27T01:52:46.449Z,5.35
2018-02-27T01:53:49.877Z,6.18
2018-02-27T01:54:53.250Z,5.68
2018-02-27T01:55:57.523Z,6.03
2018-02-27T01:57:00.203Z,5.43
2018-02-27T01:58:02.722Z,6.05
2018-02-27T01:59:05.191Z,6.18
2018-02-27T02:00:07.698Z,5.45
2018-02-27T02:01:10.216Z,5.72
2018-02-27T02:02:12.725Z,5.95
2018-02-27T02:03:15.236Z,5.57
2018-02-27T02:04:17.711Z,5.15
2018-02-27T02:05:20.967Z,5.68
2018-02-27T02:06:23.533Z,5.60
2018-02-27T02:07:25.999Z,6.22
2018-02-27T02:08:28.548Z,5.72
2018-02-27T02:09:31.805Z,5.55
2018-02-27T02:10:35.089Z,5.78
2018-02-27T02:11:37.541Z,5.20
2018-02-27T02:12:40.009Z,5.80
2018-02-27T02:13:42.512Z,6.00
2018-02-27T02:14:45.916Z,6.18
2018-02-27T02:15:48.456Z,5.40
2018-02-27T02:16:50.982Z,5.35
2018-02-27T02:17:53.450Z,5.62
2018-02-27T02:18:55.950Z,5.90
2018-02-27T02:19:58.442Z,6.20
2018-02-27T02:21:00.906Z,5.15
2018-02-27T02:22:03.415Z,5.65
2018-02-27T02:23:05.921Z,5.75
2018-02-27T02:24:08.412Z,5.53
2018-02-27T02:25:10.910Z,5.50
2018-02-27T02:26:13.386Z,5.85
2018-02-27T02:27:15.879Z,5.70
2018-02-27T02:28:19.140Z,5.75
2018-02-27T02:29:21.605Z,6.45
2018-02-27T02:30:24.174Z,5.80
2018-02-27T02:31:27.430Z,5.20
2018-02-27T02:32:29.923Z,5.90
2018-02-27T02:33:32.396Z,5.65
2018-02-27T02:34:34.896Z,5.65
2018-02-27T02:35:37.437Z,6.10
2018-02-27T02:36:39.930Z,5.87
2018-02-27T02:37:43.272Z,5.90
2018-02-27T02:38:45.779Z,5.55
2018-02-27T02:39:48.261Z,5.70
2018-02-27T02:40:50.825Z,6.03
2018-02-27T02:43:31.810Z,5.20
2018-02-27T02:44:34.398Z,5.75
2018-02-27T02:45:36.864Z,5.70
2018-02-27T02:46:40.926Z,5.93
2018-02-27T02:47:44.158Z,5.80
2018-02-27T02:48:46.673Z,5.72
2018-02-27T02:49:49.134Z,5.97
2018-02-27T02:50:52.368Z,5.55
2018-02-27T02:51:54.909Z,6.35
2018-02-27T02:52:57.399Z,5.65
2018-02-27T02:53:59.875Z,5.97
2018-02-27T02:55:02.387Z,5.62
2018-02-27T02:56:04.855Z,5.15
2018-02-27T02:57:08.211Z,5.30
2018-02-27T02:58:10.733Z,6.53
2018-02-27T02:59:13.244Z,5.82
2018-02-27T03:00:15.733Z,5.78
2018-02-27T03:01:18.199Z,5.90
2018-02-27T03:02:20.749Z,5.62
2018-02-27T03:03:23.230Z,5.82
2018-02-27T03:04:25.773Z,5.87
2018-02-27T03:05:28.240Z,5.90
2018-02-27T03:06:31.479Z,5.50
2018-02-27T03:07:33.972Z,5.57
2018-02-27T03:08:36.450Z,6.35
2018-02-27T03:09:39.741Z,5.65
2018-02-27T03:10:42.200Z,6.30
2018-02-27T03:11:45.476Z,5.53
2018-02-27T03:12:47.997Z,5.80
2018-02-27T03:13:50.487Z,5.55
2018-02-27T03:14:52.949Z,5.70
2018-02-27T03:15:55.438Z,5.70
2018-02-27T03:16:57.976Z,5.60
2018-02-27T03:18:01.231Z,6.40
2018-02-27T03:19:03.728Z,5.85
2018-02-27T03:20:06.290Z,6.03
2018-02-27T03:21:08.918Z,5.78
2018-02-27T03:22:11.506Z,5.85
2018-02-27T03:23:14.895Z,6.05
2018-02-27T03:24:17.403Z,6.12
2018-02-27T03:25:20.664Z,6.30
2018-02-27T03:26:23.234Z,5.72
2018-02-27T03:27:25.759Z,6.30
2018-02-27T03:28:28.988Z,6.43
2018-02-27T03:29:31.474Z,6.10
2018-02-27T03:30:33.948Z,5.93
2018-02-27T03:31:36.465Z,6.30
2018-02-27T03:32:38.995Z,5.68
2018-02-27T03:33:41.530Z,5.68
2018-02-27T03:34:44.022Z,6.95
2018-02-27T03:35:46.535Z,6.30
2018-02-27T03:36:49.033Z,6.10
2018-02-27T03:37:52.301Z,7.18
2018-02-27T03:38:54.775Z,6.22
2018-02-27T03:39:57.280Z,6.45
2018-02-27T03:40:59.760Z,6.50
2018-02-27T03:42:02.985Z,6.35
2018-02-27T03:43:06.248Z,6.93
2018-02-27T03:44:09.499Z,7.15
2018-02-27T03:45:11.964Z,7.50
2018-02-27T03:46:14.444Z,6.68
2018-02-27T03:47:17.704Z,7.87
2018-02-27T03:48:20.247Z,8.40
2018-02-27T03:49:22.709Z,8.55
2018-02-27T03:50:25.273Z,11.50
2018-02-27T03:51:27.743Z,11.10
2018-02-27T03:52:30.218Z,9.65
2018-02-27T03:53:32.713Z,11.05
2018-02-27T03:54:35.945Z,9.35
2018-02-27T03:55:38.420Z,9.75
2018-02-27T03:56:40.889Z,9.75
2018-02-27T03:57:43.411Z,9.45
2018-02-27T03:58:45.931Z,9.77
2018-02-27T03:59:48.413Z,9.32
2018-02-27T04:00:50.880Z,8.43
2018-02-27T04:01:53.351Z,7.75
2018-02-27T04:02:56.628Z,7.93
2018-02-27T04:03:59.130Z,8.30
2018-02-27T04:05:01.623Z,7.50
2018-02-27T04:06:04.100Z,8.25
2018-02-27T04:07:06.566Z,7.57
2018-02-27T04:08:09.120Z,7.12
2018-02-27T04:09:12.380Z,7.50
2018-02-27T04:10:14.863Z,8.00
2018-02-27T04:11:17.359Z,6.80
2018-02-27T04:12:19.837Z,7.40
2018-02-27T04:13:23.603Z,7.20
2018-02-27T04:14:26.057Z,7.15
2018-02-27T04:15:28.557Z,7.18
2018-02-27T04:16:31.051Z,7.15
2018-02-27T04:17:34.347Z,6.75
2018-02-27T04:18:36.970Z,7.00
2018-02-27T04:19:39.489Z,7.07
2018-02-27T04:20:42.742Z,6.87
2018-02-27T04:21:45.232Z,6.62
2018-02-27T04:22:49.116Z,6.70
2018-02-27T04:23:51.663Z,7.10
2018-02-27T04:24:54.464Z,7.43
2018-02-27T04:25:56.955Z,6.87
2018-02-27T04:27:00.209Z,6.78
2018-02-27T04:28:02.748Z,6.40
2018-02-27T04:29:06.003Z,6.78
2018-02-27T04:30:08.475Z,7.10
2018-02-27T04:31:10.965Z,7.00
2018-02-27T04:32:13.435Z,6.15
2018-02-27T04:33:15.931Z,6.57
2018-02-27T04:34:18.489Z,7.12
2018-02-27T04:35:20.995Z,7.20
2018-02-27T04:36:23.542Z,6.62
2018-02-27T04:37:26.019Z,7.18
2018-02-27T04:38:28.513Z,6.80
2018-02-27T04:39:31.824Z,6.87
2018-02-27T04:40:34.425Z,6.43
2018-02-27T04:41:36.908Z,6.55
2018-02-27T04:42:40.147Z,7.50
2018-02-27T04:43:43.418Z,7.07
2018-02-27T04:44:45.917Z,7.30
2018-02-27T04:45:48.435Z,7.78
2018-02-27T04:46:51.684Z,6.75
2018-02-27T04:47:54.921Z,6.40
2018-02-27T04:48:57.492Z,7.60
2018-02-27T04:49:59.974Z,6.22
2018-02-27T04:51:03.267Z,6.40
2018-02-27T04:52:06.510Z,6.00
2018-02-27T04:53:08.983Z,6.53
2018-02-27T04:54:12.258Z,7.25
2018-02-27T04:55:14.739Z,6.68
2018-02-27T04:56:17.233Z,7.15
2018-02-27T04:57:19.805Z,7.25
2018-02-27T04:58:23.104Z,6.82
2018-02-27T04:59:25.608Z,7.15
2018-02-27T05:00:28.116Z,7.07
2018-02-27T05:01:30.630Z,6.95
2018-02-27T05:02:34.001Z,7.40
2018-02-27T05:03:36.552Z,6.40
2018-02-27T05:04:39.071Z,7.47
2018-02-27T05:05:41.544Z,7.20
2018-02-27T05:06:44.841Z,7.07
2018-02-27T05:07:47.317Z,5.78
2018-02-27T05:08:50.569Z,7.37
2018-02-27T05:09:53.852Z,7.00
2018-02-27T05:10:56.451Z,7.47
2018-02-27T05:11:58.928Z,7.15
2018-02-27T05:13:01.497Z,7.32
2018-02-27T05:14:04.736Z,7.10
2018-02-27T05:15:07.721Z,7.30
2018-02-27T05:16:10.318Z,7.87
2018-02-27T05:17:12.852Z,7.20
2018-02-27T05:18:15.343Z,8.23
2018-02-27T05:19:18.591Z,7.35
2018-02-27T05:20:21.840Z,7.85
2018-02-27T05:21:24.362Z,7.35
2018-02-27T05:22:26.880Z,7.22
2018-02-27T05:23:30.131Z,8.55
2018-02-27T05:24:32.673Z,6.80
2018-02-27T05:25:35.255Z,7.15
2018-02-27T05:26:37.745Z,8.00
2018-02-27T05:27:40.242Z,8.02
2018-02-27T05:28:43.472Z,8.00
2018-02-27T05:29:46.752Z,8.38
2018-02-27T05:30:49.223Z,7.53
2018-02-27T05:31:52.460Z,7.72
2018-02-27T05:32:55.758Z,7.62
2018-02-27T05:33:58.262Z,7.60
2018-02-27T05:35:00.746Z,7.37
2018-02-27T05:36:04.736Z,8.30
2018-02-27T05:37:08.026Z,8.80
2018-02-27T05:38:10.538Z,8.50
2018-02-27T05:39:13.086Z,8.35
2018-02-27T05:40:15.636Z,8.38
2018-02-27T05:41:18.896Z,8.00
2018-02-27T05:42:22.136Z,8.20
2018-02-27T05:43:25.435Z,7.40
2018-02-27T05:44:28.034Z,7.95
2018-02-27T05:45:30.675Z,7.95
2018-02-27T05:46:33.193Z,8.57
2018-02-27T05:47:35.725Z,8.27
2018-02-27T05:48:38.234Z,7.80
2018-02-27T05:49:40.705Z,8.82
2018-02-27T05:50:43.319Z,8.80
2018-02-27T05:51:45.818Z,7.97
2018-02-27T05:52:48.303Z,8.80
2018-02-27T05:53:51.592Z,8.15
2018-02-27T05:54:54.131Z,9.00
2018-02-27T05:55:56.733Z,8.90
2018-02-27T05:56:59.987Z,8.40
2018-02-27T05:58:02.509Z,9.18
2018-02-27T05:59:05.076Z,8.75
2018-02-27T06:00:07.602Z,9.10
2018-02-27T06:01:10.215Z,8.43
2018-02-27T06:02:12.705Z,9.20
2018-02-27T06:03:15.231Z,8.15
2018-02-27T06:04:17.742Z,7.90
2018-02-27T06:05:21.050Z,8.77
2018-02-27T06:06:23.804Z,8.82
2018-02-27T06:07:27.126Z,9.50
2018-02-27T06:08:29.672Z,9.20
2018-02-27T06:09:33.004Z,8.93
2018-02-27T06:10:35.546Z,9.10
2018-02-27T06:11:38.888Z,9.13
2018-02-27T06:12:41.504Z,8.85
2018-02-27T06:13:44.868Z,9.93
2018-02-27T06:14:47.556Z,9.07
2018-02-27T06:15:50.610Z,8.75
2018-02-27T06:16:53.135Z,9.93
2018-02-27T06:17:55.626Z,9.20
2018-02-27T06:18:58.162Z,10.15
2018-02-27T06:20:00.686Z,9.85
2018-02-27T06:21:03.166Z,9.80
2018-02-27T06:22:06.467Z,9.45
2018-02-27T06:23:09.019Z,10.60
2018-02-27T06:24:11.549Z,10.45
2018-02-27T06:25:14.815Z,10.98
2018-02-27T06:26:18.164Z,11.30
2018-02-27T06:27:20.657Z,11.10
2018-02-27T06:28:23.946Z,11.77
2018-02-27T06:29:26.573Z,10.82
2018-02-27T06:30:29.073Z,10.18
2018-02-27T06:31:32.464Z,12.27
2018-02-27T06:32:34.976Z,10.88
2018-02-27T06:33:37.539Z,10.68
2018-02-27T06:34:41.322Z,10.45
2018-02-27T06:35:44.865Z,10.10
2018-02-27T06:36:48.228Z,10.00
2018-02-27T06:37:50.703Z,10.05
2018-02-27T06:38:53.189Z,9.95
2018-02-27T06:39:55.781Z,9.30
2018-02-27T06:40:58.310Z,10.40
2018-02-27T06:42:00.955Z,10.35
2018-02-27T06:43:03.653Z,10.10
2018-02-27T06:44:06.185Z,8.82
2018-02-27T06:45:09.547Z,9.00
2018-02-27T06:46:12.179Z,9.40
2018-02-27T06:47:15.569Z,9.65
2018-02-27T06:48:18.134Z,9.43
2018-02-27T06:49:21.467Z,8.73
2018-02-27T06:50:24.048Z,9.73
2018-02-27T06:51:26.720Z,9.07
2018-02-27T06:52:30.457Z,9.10
2018-02-27T06:53:33.868Z,9.82
2018-02-27T06:54:36.473Z,8.98
2018-02-27T06:55:40.431Z,9.02
2018-02-27T06:56:43.928Z,9.80
2018-02-27T06:57:47.369Z,9.93
2018-02-27T06:58:49.956Z,10.05
2018-02-27T06:59:53.457Z,10.05
2018-02-27T07:00:56.072Z,12.20
2018-02-27T07:01:59.091Z,14.35
2018-02-27T07:03:02.404Z,14.60
2018-02-27T07:04:05.724Z,14.27
2018-02-27T07:05:08.335Z,13.90
2018-02-27T07:06:11.727Z,13.40
2018-02-27T07:07:15.050Z,12.77
2018-02-27T07:08:17.700Z,12.23
2018-02-27T07:09:21.337Z,12.57
2018-02-27T07:10:24.567Z,12.90
2018-02-27T07:11:28.230Z,11.98
2018-02-27T07:12:30.795Z,13.13
2018-02-27T07:13:33.398Z,13.10
2018-02-27T07:14:35.993Z,13.82
2018-02-27T07:15:38.568Z,13.40
2018-02-27T07:16:41.192Z,14.55
2018-02-27T07:17:44.691Z,13.88
2018-02-27T07:18:47.323Z,14.10
2018-02-27T07:19:49.947Z,13.73
2018-02-27T07:20:52.746Z,16.15
2018-02-27T07:21:55.397Z,16.85
2018-02-27T07:22:58.240Z,16.92
2018-02-27T07:24:00.753Z,16.55
2018-02-27T07:25:03.321Z,16.98
2018-02-27T07:26:05.785Z,17.48
2018-02-27T07:27:09.119Z,16.87
2018-02-27T07:28:12.376Z,16.40
2018-02-27T07:29:14.878Z,16.05
2018-02-27T07:30:18.129Z,15.20
2018-02-27T07:31:21.381Z,14.95
2018-02-27T07:32:24.746Z,13.20
2018-02-27T07:33:27.219Z,11.25
2018-02-27T07:34:30.494Z,13.05
2018-02-27T07:35:33.003Z,13.40
2018-02-27T07:36:35.567Z,12.00
2018-02-27T07:37:38.047Z,12.93
2018-02-27T07:38:41.289Z,12.10
2018-02-27T07:39:44.571Z,11.60
2018-02-27T07:40:47.045Z,11.95
2018-02-27T07:41:49.549Z,11.48
2018-02-27T07:42:52.040Z,12.48
2018-02-27T07:43:54.539Z,10.38
2018-02-27T07:44:57.889Z,11.15
2018-02-27T07:46:01.446Z,11.05
2018-02-27T07:47:03.999Z,11.07
2018-02-27T07:48:06.474Z,12.50
2018-02-27T07:49:08.947Z,11.57
2018-02-27T07:50:11.468Z,9.88
2018-02-27T07:51:13.939Z,11.02
2018-02-27T07:52:16.423Z,11.00
2018-02-27T07:53:18.883Z,8.20
2018-02-27T07:54:21.457Z,8.75
2018-02-27T07:55:23.946Z,8.18
2018-02-27T07:56:27.192Z,7.60
2018-02-27T07:57:30.436Z,8.10
2018-02-27T07:58:33.719Z,7.37
2018-02-27T07:59:36.196Z,6.62
2018-02-27T08:00:38.710Z,6.40
2018-02-27T08:01:41.295Z,6.53
2018-02-27T08:02:44.428Z,6.05
2018-02-27T08:03:46.937Z,7.03
2018-02-27T08:04:50.212Z,7.85
2018-02-27T08:05:52.684Z,7.07
2018-02-27T08:06:55.361Z,7.28
2018-02-27T08:07:57.995Z,7.28
2018-02-27T08:09:00.516Z,7.55
2018-02-27T08:10:03.128Z,6.87
2018-02-27T08:11:05.606Z,7.32
2018-02-27T08:12:08.094Z,7.80
2018-02-27T08:13:10.599Z,8.02
2018-02-27T08:14:13.963Z,7.75
2018-02-27T08:15:16.477Z,7.00
2018-02-27T08:16:18.931Z,6.85
2018-02-27T08:17:21.522Z,7.10
2018-02-27T08:18:24.079Z,7.20
2018-02-27T08:19:26.533Z,7.03
2018-02-27T08:20:29.128Z,7.00
2018-02-27T08:21:31.641Z,7.50
2018-02-27T08:22:34.264Z,6.87
2018-02-27T08:23:36.845Z,6.60
2018-02-27T08:24:39.317Z,6.82
2018-02-27T08:25:41.790Z,7.32
2018-02-27T08:26:44.285Z,7.82
2018-02-27T08:27:46.844Z,7.72
2018-02-27T08:28:50.088Z,7.30
2018-02-27T08:29:54.069Z,7.25
2018-02-27T08:30:57.350Z,5.93
2018-02-27T08:31:59.878Z,5.80
2018-02-27T08:33:02.336Z,6.80
2018-02-27T08:34:05.595Z,5.93
2018-02-27T08:35:08.085Z,6.15
2018-02-27T08:36:10.620Z,6.78
2018-02-27T08:37:13.096Z,5.78
2018-02-27T08:38:15.579Z,6.30
2018-02-27T08:39:18.166Z,5.78
2018-02-27T08:40:21.360Z,6.18
2018-02-27T08:41:25.964Z,5.75
2018-02-27T08:42:28.473Z,6.57
2018-02-27T08:43:31.717Z,5.80
2018-02-27T08:44:35.154Z,6.25
2018-02-27T08:45:37.709Z,7.00
2018-02-27T08:46:40.237Z,6.55
2018-02-27T08:47:42.757Z,5.95
2018-02-27T08:48:45.298Z,7.05
2018-02-27T08:49:47.764Z,5.45
2018-02-27T08:50:50.233Z,6.70
2018-02-27T08:51:52.791Z,6.30
2018-02-27T08:52:55.262Z,5.60
2018-02-27T08:53:58.535Z,6.10
2018-02-27T08:55:00.998Z,5.60
2018-02-27T08:56:03.468Z,5.93
2018-02-27T08:57:06.746Z,6.12
2018-02-27T08:58:09.277Z,5.50
2018-02-27T08:59:11.759Z,5.60
2018-02-27T09:00:15.004Z,5.30
2018-02-27T09:01:18.219Z,5.10
2018-02-27T09:02:20.731Z,5.25
2018-02-27T09:03:23.202Z,5.25
2018-02-27T09:04:26.432Z,5.10
2018-02-27T09:05:29.686Z,5.68
2018-02-27T09:06:32.919Z,5.50
2018-02-27T09:07:36.266Z,5.57
2018-02-27T09:08:39.500Z,5.18
2018-02-27T09:09:42.724Z,5.37
2018-02-27T09:10:45.285Z,5.62
2018-02-27T09:11:47.806Z,5.18
2018-02-27T09:12:51.037Z,4.50
2018-02-27T09:13:54.264Z,4.07
2018-02-27T09:14:56.724Z,4.47
2018-02-27T09:15:59.296Z,4.43
2018-02-27T09:17:01.782Z,5.28
2018-02-27T09:18:04.266Z,4.22
2018-02-27T09:19:08.287Z,4.65
2018-02-27T09:20:10.793Z,4.35
2018-02-27T09:21:13.214Z,4.57
2018-02-27T09:22:16.447Z,5.00
2018-02-27T09:23:18.919Z,4.57
2018-02-27T09:24:21.512Z,5.55
2018-02-27T09:25:23.981Z,4.93
2018-02-27T09:26:26.457Z,5.57
2018-02-27T09:27:28.978Z,5.62
2018-02-27T09:28:32.237Z,4.70
2018-02-27T09:29:34.701Z,5.50
2018-02-27T09:30:37.218Z,5.20
2018-02-27T09:31:40.395Z,5.55
2018-02-27T09:32:43.620Z,5.50
2018-02-27T09:33:46.878Z,4.97
2018-02-27T09:34:50.103Z,5.20
2018-02-27T09:35:53.332Z,5.62
2018-02-27T09:36:55.849Z,4.75
2018-02-27T09:37:58.327Z,5.40
2018-02-27T09:39:00.794Z,5.12
2018-02-27T09:40:03.280Z,5.25
2018-02-27T09:41:05.756Z,4.68
2018-02-27T09:42:08.339Z,4.75
2018-02-27T09:43:10.819Z,4.60
2018-02-27T09:44:14.095Z,5.05
2018-02-27T09:45:17.317Z,5.97
2018-02-27T09:46:20.548Z,4.25
2018-02-27T09:47:23.846Z,4.60
2018-02-27T09:48:26.319Z,4.70
2018-02-27T09:49:29.553Z,4.30
2018-02-27T09:50:32.011Z,4.37
2018-02-27T09:51:35.243Z,4.10
2018-02-27T09:52:38.498Z,5.10
2018-02-27T09:53:41.024Z,4.30
2018-02-27T09:54:43.519Z,4.75
2018-02-27T09:55:46.738Z,4.35
2018-02-27T09:56:49.217Z,4.18
2018-02-27T09:57:51.680Z,4.00
2018-02-27T09:58:54.177Z,3.95
2018-02-27T09:59:56.746Z,4.35
2018-02-27T10:00:59.231Z,5.47
2018-02-27T10:02:01.716Z,5.55
2018-02-27T10:03:04.990Z,6.10
2018-02-27T10:04:07.544Z,6.45
2018-02-27T10:05:10.143Z,5.40
2018-02-27T10:06:12.630Z,5.43
2018-02-27T10:07:16.608Z,6.30
2018-02-27T10:08:19.870Z,5.57
2018-02-27T10:09:23.130Z,5.50
2018-02-27T10:10:25.643Z,5.65
2018-02-27T10:11:28.111Z,5.62
2018-02-27T10:12:30.701Z,5.75
2018-02-27T10:13:33.198Z,6.00
2018-02-27T10:14:36.447Z,6.32
2018-02-27T10:15:39.797Z,6.20
2018-02-27T10:16:43.049Z,5.72
2018-02-27T10:17:45.519Z,6.47
2018-02-27T10:18:48.082Z,5.55
2018-02-27T10:19:51.303Z,6.30
2018-02-27T10:20:54.578Z,6.18
2018-02-27T10:21:57.037Z,10.77
2018-02-27T10:22:59.531Z,12.73
2018-02-27T10:24:02.039Z,7.15
2018-02-27T10:25:05.448Z,5.87
2018-02-27T10:26:07.973Z,6.32
2018-02-27T10:27:10.458Z,6.22
2018-02-27T10:28:12.930Z,6.47
2018-02-27T10:29:15.449Z,5.70
2018-02-27T10:30:17.920Z,6.25
2018-02-27T10:31:21.149Z,5.95
2018-02-27T10:32:24.375Z,5.93
2018-02-27T10:33:27.621Z,5.90
2018-02-27T10:34:31.000Z,6.28
2018-02-27T10:35:34.142Z,5.75
2018-02-27T10:36:36.659Z,5.22
2018-02-27T10:37:39.888Z,5.50
2018-02-27T10:38:43.121Z,5.50
2018-02-27T10:39:45.608Z,5.47
2018-02-27T10:40:48.111Z,5.45
2018-02-27T10:41:50.591Z,5.90
2018-02-27T10:42:53.073Z,5.55
2018-02-27T10:43:55.538Z,6.18
2018-02-27T10:44:58.769Z,6.25
2018-02-27T10:46:01.293Z,5.28
2018-02-27T10:47:03.759Z,5.40
2018-02-27T10:48:07.021Z,6.00
2018-02-27T10:49:09.489Z,6.15
2018-02-27T10:50:11.964Z,5.40
2018-02-27T10:51:14.466Z,6.12
2018-02-27T10:52:17.721Z,5.90
2018-02-27T10:53:20.985Z,6.00
2018-02-27T10:54:23.472Z,5.82
2018-02-27T10:55:26.752Z,5.65
2018-02-27T10:56:29.257Z,5.80
2018-02-27T10:57:32.543Z,5.10
2018-02-27T10:58:35.421Z,5.50
2018-02-27T10:59:39.126Z,5.75
2018-02-27T11:00:48.746Z,4.97
2018-02-27T11:01:56.737Z,5.37
2018-02-27T11:02:59.350Z,5.28
2018-02-27T11:04:01.924Z,5.90
2018-02-27T11:05:04.391Z,5.40
2018-02-27T11:06:07.647Z,5.47
2018-02-27T11:07:10.175Z,5.30
2018-02-27T11:08:12.801Z,5.30
2018-02-27T11:09:15.279Z,5.50
2018-02-27T11:10:18.821Z,5.82
2018-02-27T11:11:21.341Z,5.72
2018-02-27T11:12:23.937Z,4.37
2018-02-27T11:13:26.454Z,5.30
2018-02-27T11:14:28.939Z,5.10
2018-02-27T11:15:31.460Z,4.50
2018-02-27T11:16:33.924Z,5.25
2018-02-27T11:17:37.171Z,4.25
2018-02-27T11:18:40.403Z,4.72
2018-02-27T11:19:43.681Z,4.15
2018-02-27T11:20:49.099Z,4.82
2018-02-27T11:21:51.595Z,4.15
2018-02-27T11:22:54.110Z,4.50
2018-02-27T11:23:56.660Z,5.10
2018-02-27T11:24:59.142Z,4.72
2018-02-27T11:26:03.652Z,4.57
2018-02-27T11:27:06.156Z,18.77
2018-02-27T11:28:08.638Z,13.75
2018-02-27T11:29:11.124Z,4.60
2018-02-27T11:30:13.605Z,5.05
2018-02-27T11:31:16.889Z,4.43
2018-02-27T11:32:19.395Z,4.68
2018-02-27T11:33:22.639Z,4.80
2018-02-27T11:34:25.115Z,4.87
2018-02-27T11:35:27.573Z,4.45
2018-02-27T11:36:30.858Z,4.95
2018-02-27T11:37:34.126Z,3.80
2018-02-27T11:38:36.702Z,4.97
2018-02-27T11:39:39.943Z,3.80
2018-02-27T11:40:43.220Z,4.03
2018-02-27T11:41:45.728Z,4.28
2018-02-27T11:42:48.234Z,4.37
2018-02-27T11:43:50.712Z,4.20
2018-02-27T11:44:54.128Z,3.55
2018-02-27T11:45:56.713Z,3.80
2018-02-27T11:46:59.958Z,3.83
2018-02-27T11:48:03.283Z,3.53
2018-02-27T11:49:05.749Z,3.80
2018-02-27T11:50:08.284Z,3.85
2018-02-27T11:51:14.144Z,3.62
2018-02-27T11:52:17.552Z,3.80
2018-02-27T11:53:20.042Z,3.60
2018-02-27T11:54:23.336Z,3.58
2018-02-27T11:55:25.844Z,3.45
2018-02-27T11:56:28.306Z,3.72
2018-02-27T11:57:30.864Z,3.90
2018-02-27T11:58:33.442Z,3.83
2018-02-27T11:59:38.774Z,3.80
2018-02-27T12:00:41.257Z,3.95
2018-02-27T12:01:43.744Z,3.95
2018-02-27T12:02:46.470Z,3.45
2018-02-27T12:03:48.969Z,3.50
2018-02-27T12:04:52.201Z,3.20
2018-02-27T12:05:54.675Z,3.50
2018-02-27T12:06:57.199Z,3.55
2018-02-27T12:07:59.698Z,3.42
2018-02-27T12:09:02.926Z,3.85
2018-02-27T12:10:06.198Z,3.90
2018-02-27T12:11:08.749Z,3.85
2018-02-27T12:12:11.467Z,3.70
2018-02-27T12:13:13.926Z,3.17
2018-02-27T12:14:16.425Z,3.10
2018-02-27T12:15:18.896Z,3.10
2018-02-27T12:16:22.136Z,3.65
2018-02-27T12:17:24.809Z,3.50
2018-02-27T12:18:27.274Z,3.50
2018-02-27T12:19:29.897Z,3.50
2018-02-27T12:20:32.376Z,3.53
2018-02-27T12:21:34.871Z,3.90
2018-02-27T12:22:37.369Z,3.58
2018-02-27T12:23:39.948Z,4.28
2018-02-27T12:24:42.440Z,3.55
2018-02-27T12:25:44.911Z,3.67
2018-02-27T12:26:47.390Z,3.35
2018-02-27T12:27:49.893Z,3.33
2018-02-27T12:28:52.382Z,3.80
2018-02-27T12:29:54.896Z,3.80
2018-02-27T12:30:58.146Z,3.58
2018-02-27T12:32:00.812Z,3.37
2018-02-27T12:33:03.265Z,3.62
2018-02-27T12:34:06.655Z,3.37
2018-02-27T12:35:09.203Z,3.30
2018-02-27T12:36:12.147Z,3.75
2018-02-27T12:37:14.650Z,4.10
2018-02-27T12:38:17.125Z,3.62
2018-02-27T12:39:19.584Z,3.35
2018-02-27T12:40:22.128Z,3.55
2018-02-27T12:41:24.621Z,3.70
2018-02-27T12:42:27.876Z,3.22
2018-02-27T12:43:30.361Z,3.55
2018-02-27T12:44:32.848Z,3.05
2018-02-27T12:45:35.467Z,3.30
2018-02-27T12:46:37.940Z,2.47
2018-02-27T12:47:40.420Z,3.30
2018-02-27T12:48:42.947Z,3.87
2018-02-27T12:49:45.449Z,3.03
2018-02-27T12:50:48.737Z,3.53
2018-02-27T12:51:51.195Z,3.50
2018-02-27T12:52:55.295Z,3.25
2018-02-27T12:53:57.809Z,3.70
2018-02-27T12:55:00.328Z,4.07
2018-02-27T12:56:03.596Z,3.33
2018-02-27T12:57:06.076Z,3.70
2018-02-27T12:58:08.639Z,3.47
2018-02-27T12:59:11.163Z,3.45
2018-02-27T13:00:13.634Z,3.70
2018-02-27T13:01:16.218Z,3.20
2018-02-27T13:02:18.762Z,3.90
2018-02-27T13:03:21.229Z,3.35
2018-02-27T13:04:24.534Z,3.22
2018-02-27T13:05:27.016Z,3.60
2018-02-27T13:06:30.252Z,3.40
2018-02-27T13:07:33.672Z,3.28
2018-02-27T13:08:36.151Z,2.62
2018-02-27T13:09:38.626Z,2.90
2018-02-27T13:10:41.897Z,2.67
2018-02-27T13:11:44.377Z,2.75
2018-02-27T13:12:46.844Z,2.70
2018-02-27T13:13:50.081Z,2.53
2018-02-27T13:14:53.347Z,10.18
2018-02-27T13:15:56.012Z,12.23
2018-02-27T13:16:58.499Z,3.75
2018-02-27T13:18:00.971Z,3.00
2018-02-27T13:19:03.459Z,2.20
2018-02-27T13:20:05.941Z,2.87
2018-02-27T13:21:08.469Z,2.47
2018-02-27T13:22:11.698Z,2.90
2018-02-27T13:23:15.659Z,3.20
2018-02-27T13:24:18.207Z,3.10
2018-02-27T13:25:20.678Z,3.42
2018-02-27T13:26:23.168Z,3.37
2018-02-27T13:27:25.674Z,3.45
2018-02-27T13:28:28.919Z,3.60
2018-02-27T13:29:32.157Z,3.90
2018-02-27T13:30:35.482Z,3.30
2018-02-27T13:31:38.010Z,3.40
2018-02-27T13:32:40.630Z,3.12
2018-02-27T13:33:43.138Z,3.67
2018-02-27T13:34:45.622Z,3.60
2018-02-27T13:35:48.118Z,3.62
2018-02-27T13:36:50.586Z,3.08
2018-02-27T13:37:53.118Z,3.35
2018-02-27T13:38:55.570Z,3.50
2018-02-27T13:39:58.050Z,3.53
2018-02-27T13:41:00.525Z,4.40
2018-02-27T13:42:03.052Z,3.85
2018-02-27T13:43:05.578Z,3.90
2018-02-27T13:44:08.048Z,3.78
2018-02-27T13:45:11.310Z,4.65
2018-02-27T13:46:13.817Z,3.87
2018-02-27T13:47:17.066Z,4.03
2018-02-27T13:48:19.720Z,3.90
2018-02-27T13:49:25.039Z,3.90
2018-02-27T13:50:24.699Z,3.60
2018-02-27T13:51:27.294Z,3.83
2018-02-27T13:52:29.765Z,3.78
2018-02-27T13:53:32.307Z,3.80
2018-02-27T13:54:35.574Z,3.70